Time;durP1;ratioP1;P1;durP2;ratioP2;P2;SDS_P1;SDS_P2;PMS_P1;PMS_P2;Temp;Humidity;BMP_temperature;BMP_pressure;BME280_temperature;BME280_humidity;BME280_pressure;Samples;Min_cycle;Max_cycle;Signal;HPM_P1;HPM_P2
2022/09/14 00:00:58;;;;;;;6.38;0.73;;;16.70;99.90;;;;;;4807193;29;20050;-82
2022/09/14 00:03:24;;;;;;;5.03;0.70;;;16.70;99.90;;;;;;4791295;29;20114;-81
2022/09/14 00:05:50;;;;;;;1.35;0.40;;;16.70;99.90;;;;;;4791389;29;20483;-82
2022/09/14 00:08:15;;;;;;;3.25;0.68;;;16.60;99.90;;;;;;4807764;29;20039;-82
2022/09/14 00:10:43;;;;;;;2.95;0.55;;;16.70;99.90;;;;;;4791820;29;20053;-82
2022/09/14 00:13:11;;;;;;;7.05;0.50;;;16.60;99.90;;;;;;4807552;29;20047;-82
2022/09/14 00:15:38;;;;;;;4.70;0.70;;;16.60;99.90;;;;;;4807541;29;20121;-83
2022/09/14 00:18:04;;;;;;;5.72;0.43;;;16.60;99.90;;;;;;4790483;29;20065;-82
2022/09/14 00:20:31;;;;;;;3.20;0.60;;;16.50;99.90;;;;;;4790982;29;20077;-82
2022/09/14 00:22:57;;;;;;;5.68;0.65;;;16.50;99.90;;;;;;4807280;29;20487;-81
2022/09/14 00:25:23;;;;;;;3.20;0.50;;;16.50;99.90;;;;;;4790550;29;20053;-81
2022/09/14 00:27:48;;;;;;;4.70;0.60;;;16.60;99.90;;;;;;4806711;29;20108;-82
2022/09/14 00:30:14;;;;;;;3.47;0.60;;;16.60;99.90;;;;;;4806888;29;20368;-82
2022/09/14 00:32:39;;;;;;;5.22;0.60;;;16.70;99.90;;;;;;4791132;29;20055;-83
2022/09/14 00:35:05;;;;;;;4.95;0.82;;;16.80;99.90;;;;;;4791112;29;20093;-82
2022/09/14 00:37:31;;;;;;;6.55;0.80;;;16.80;99.90;;;;;;4806702;29;20183;-82
2022/09/14 00:39:57;;;;;;;6.57;0.80;;;16.90;99.90;;;;;;4807054;29;20043;-81
2022/09/14 00:42:22;;;;;;;4.20;0.88;;;16.90;99.90;;;;;;4790673;29;20059;-82
2022/09/14 00:44:48;;;;;;;6.03;0.70;;;16.90;99.90;;;;;;4790823;29;20483;-82
2022/09/14 00:47:15;;;;;;;3.42;0.52;;;17.00;99.90;;;;;;4806346;29;20063;-82
2022/09/14 00:49:42;;;;;;;4.70;0.70;;;17.00;99.90;;;;;;4790635;29;20509;-82
2022/09/14 00:52:11;;;;;;;3.80;0.40;;;16.90;99.90;;;;;;4791169;29;20062;-83
2022/09/14 00:54:43;;;;;;;6.13;0.90;;;17.00;99.90;;;;;;4790547;29;20046;-82
2022/09/14 00:57:09;;;;;;;4.80;0.85;;;16.90;99.90;;;;;;4789993;29;20047;-82
2022/09/14 00:59:38;;;;;;;4.05;0.50;;;16.90;99.90;;;;;;4790948;29;20055;-81
2022/09/14 01:02:05;;;;;;;6.25;0.43;;;16.90;99.90;;;;;;4792954;29;20078;-82
2022/09/14 01:04:31;;;;;;;2.90;0.50;;;17.00;99.90;;;;;;4809161;29;20137;-82
2022/09/14 01:07:09;;;;;;;5.75;0.65;;;17.00;99.90;;;;;;4809536;29;20078;-82
2022/09/14 01:10:13;;;;;;;4.45;0.60;;;16.90;99.90;;;;;;4809078;29;20139;-82
2022/09/14 01:12:42;;;;;;;;;;;16.90;99.90;;;;;;4809315;29;20407;-82
2022/09/14 01:15:14;;;;;;;6.15;0.55;;;16.90;99.90;;;;;;4809074;29;19932;-82
2022/09/14 01:17:52;;;;;;;5.05;0.50;;;17.00;99.90;;;;;;4808968;29;20051;-81
2022/09/14 01:20:34;;;;;;;3.17;0.47;;;16.90;99.90;;;;;;4809250;29;20059;-82
2022/09/14 01:23:23;;;;;;;9.27;0.80;;;16.90;99.90;;;;;;4808954;29;20057;-82
2022/09/14 01:26:03;;;;;;;4.18;0.50;;;16.90;99.90;;;;;;4792411;29;20107;-82
2022/09/14 01:28:41;;;;;;;6.25;0.82;;;16.90;99.90;;;;;;4808719;29;20047;-82
2022/09/14 01:31:20;;;;;;;5.13;0.47;;;16.90;99.90;;;;;;4792531;29;20055;-81
2022/09/14 01:33:54;;;;;;;3.97;0.50;;;16.90;99.90;;;;;;4808680;29;20051;-84
2022/09/14 01:36:21;;;;;;;4.90;0.30;;;16.90;99.90;;;;;;4808705;29;20047;-82
2022/09/14 01:38:50;;;;;;;5.22;0.50;;;16.90;99.90;;;;;;4808849;29;20051;-82
2022/09/14 01:41:21;;;;;;;4.85;0.40;;;16.90;99.90;;;;;;4792271;29;20078;-82
2022/09/14 01:44:10;;;;;;;4.38;0.55;;;16.90;99.90;;;;;;4792549;29;20046;-82
2022/09/14 01:46:44;;;;;;;5.30;0.30;;;16.90;99.90;;;;;;4808484;29;20066;-84
2022/09/14 01:49:15;;;;;;;3.17;0.32;;;16.80;99.90;;;;;;4808306;29;20059;-82
2022/09/14 01:52:00;;;;;;;6.47;0.50;;;16.90;99.90;;;;;;4808371;29;20083;-82
2022/09/14 01:54:42;;;;;;;3.30;0.60;;;16.90;99.90;;;;;;4792067;29;20051;-82
2022/09/14 01:57:34;;;;;;;2.90;0.40;;;16.80;99.90;;;;;;4808104;29;20495;-82
2022/09/14 02:00:09;;;;;;;3.20;0.30;;;16.80;99.90;;;;;;4792546;29;20051;-82
2022/09/14 02:02:40;;;;;;;2.38;0.52;;;16.80;99.90;;;;;;4793182;29;20072;-82
2022/09/14 02:05:07;;;;;;;2.55;0.20;;;16.80;99.90;;;;;;4792306;29;20086;-82
2022/09/14 02:07:35;;;;;;;4.93;0.30;;;16.90;99.90;;;;;;4808561;29;20519;-82
2022/09/14 02:10:04;;;;;;;2.15;0.40;;;16.80;99.90;;;;;;4809018;29;20047;-82
2022/09/14 02:12:30;;;;;;;3.63;0.40;;;16.80;99.90;;;;;;4808272;29;20051;-82
2022/09/14 02:14:56;;;;;;;2.38;0.30;;;16.80;99.90;;;;;;4808768;29;20047;-82
2022/09/14 02:17:22;;;;;;;2.58;0.30;;;16.80;99.90;;;;;;4792453;29;20069;-82
2022/09/14 02:19:59;;;;;;;2.92;0.20;;;16.80;99.90;;;;;;4792119;29;20050;-82
2022/09/14 02:22:27;;;;;;;2.55;0.20;;;16.80;99.90;;;;;;4808404;29;20436;-81
2022/09/14 02:24:53;;;;;;;4.85;0.57;;;16.80;99.90;;;;;;4792326;29;20058;-81
2022/09/14 02:27:19;;;;;;;2.47;0.75;;;16.80;99.90;;;;;;4792723;29;20122;-81
2022/09/14 02:29:45;;;;;;;2.75;0.20;;;16.80;99.90;;;;;;4808337;29;20050;-81
2022/09/14 02:32:23;;;;;;;3.90;0.30;;;16.70;99.90;;;;;;4808824;29;20070;-81
2022/09/14 02:35:21;;;;;;;1.25;0.22;;;16.80;99.90;;;;;;4792469;29;20046;-82
2022/09/14 02:38:05;;;;;;;2.97;0.20;;;16.70;99.90;;;;;;4792671;29;20059;-83
2022/09/14 02:40:41;;;;;;;2.72;0.38;;;16.80;99.90;;;;;;4808209;29;20047;-82
2022/09/14 02:43:38;;;;;;;3.85;0.30;;;16.70;99.90;;;;;;4791943;29;20050;-82
2022/09/14 02:46:22;;;;;;;2.97;0.30;;;16.80;99.90;;;;;;4808105;29;20142;-82
2022/09/14 02:49:13;;;;;;;0.98;0.17;;;16.70;99.90;;;;;;4791747;29;20054;-82
2022/09/14 02:52:04;;;;;;;1.33;0.20;;;16.70;99.90;;;;;;4808353;29;20047;-82
2022/09/14 02:55:06;;;;;;;2.55;0.10;;;16.80;99.90;;;;;;4808445;29;20053;-83
2022/09/14 02:57:31;;;;;;;3.13;0.10;;;16.70;99.90;;;;;;4751430;30;20131;-83
2022/09/14 02:59:57;;;;;;;1.20;0.10;;;16.70;99.90;;;;;;4795559;29;20141;-83
2022/09/14 03:02:23;;;;;;;0.93;0.20;;;16.70;99.90;;;;;;4790895;29;20051;-82
2022/09/14 03:04:48;;;;;;;2.70;0.20;;;16.70;99.90;;;;;;4791158;29;20055;-82
2022/09/14 03:07:14;;;;;;;1.73;0.20;;;16.60;99.90;;;;;;4790807;29;20055;-82
2022/09/14 03:09:40;;;;;;;2.05;0.22;;;16.70;99.90;;;;;;4807008;29;20509;-82
2022/09/14 03:12:05;;;;;;;2.03;0.40;;;16.70;99.90;;;;;;4806827;29;20470;-82
2022/09/14 03:14:31;;;;;;;4.40;0.30;;;16.70;99.90;;;;;;4807029;29;20045;-81
2022/09/14 03:16:56;;;;;;;3.15;0.30;;;16.70;99.90;;;;;;4806993;29;20047;-82
2022/09/14 03:19:22;;;;;;;2.67;0.30;;;16.80;99.90;;;;;;4806985;29;20043;-82
2022/09/14 03:21:48;;;;;;;2.15;0.40;;;16.80;99.90;;;;;;4790610;29;20046;-82
2022/09/14 03:24:13;;;;;;;3.45;0.30;;;16.80;99.90;;;;;;4790877;29;20050;-82
2022/09/14 03:26:39;;;;;;;1.58;0.50;;;16.70;99.90;;;;;;4790549;29;20560;-82
2022/09/14 03:29:05;;;;;;;4.90;1.75;;;16.80;99.90;;;;;;4790416;29;20050;-81
2022/09/14 03:31:32;;;;;;;3.63;0.70;;;16.70;99.90;;;;;;4806712;29;20047;-82
2022/09/14 03:34:00;;;;;;;4.65;0.63;;;16.80;99.90;;;;;;4806799;29;20043;-83
2022/09/14 03:36:28;;;;;;;5.88;0.50;;;16.80;99.90;;;;;;4806638;29;20047;-82
2022/09/14 03:38:56;;;;;;;4.30;0.50;;;16.80;99.90;;;;;;4806730;29;20066;-83
2022/09/14 03:41:23;;;;;;;4.65;0.88;;;16.80;99.90;;;;;;4790504;29;20065;-82
2022/09/14 03:43:49;;;;;;;4.43;0.70;;;16.70;99.90;;;;;;4790612;29;20059;-82
2022/09/14 03:46:17;;;;;;;5.30;0.50;;;16.70;99.90;;;;;;4790372;29;20058;-82
2022/09/14 03:48:43;;;;;;;5.32;0.60;;;16.70;99.90;;;;;;4806520;29;20058;-82
2022/09/14 03:51:11;;;;;;;3.78;0.35;;;16.70;99.90;;;;;;4790609;29;20099;-82
2022/09/14 03:53:37;;;;;;;7.00;0.63;;;16.70;99.90;;;;;;4806568;29;20093;-82
2022/09/14 03:56:15;;;;;;;4.63;0.70;;;16.60;99.90;;;;;;4806593;29;20054;-83
2022/09/14 03:58:42;;;;;;;3.72;0.35;;;16.60;99.90;;;;;;4790753;29;20057;-82
2022/09/14 04:01:10;;;;;;;4.10;0.60;;;16.60;99.90;;;;;;4806952;29;20086;-83
2022/09/14 04:03:37;;;;;;;4.75;0.80;;;16.60;99.90;;;;;;4806780;29;20059;-83
2022/09/14 04:06:05;;;;;;;8.02;0.60;;;16.60;99.90;;;;;;4806650;29;20050;-82
2022/09/14 04:08:33;;;;;;;5.63;0.63;;;16.60;99.90;;;;;;4790902;29;20089;-82
2022/09/14 04:10:59;;;;;;;6.60;0.73;;;16.60;99.90;;;;;;4806725;29;20542;-82
2022/09/14 04:13:25;;;;;;;4.35;0.80;;;16.50;99.90;;;;;;4807137;29;20134;-82
2022/09/14 04:16:00;;;;;;;4.22;1.40;;;16.50;99.90;;;;;;4806887;29;20398;-82
2022/09/14 04:18:26;;;;;;;6.38;0.82;;;16.50;99.90;;;;;;4807352;29;20544;-82
2022/09/14 04:21:16;;;;;;;5.00;0.82;;;16.50;99.90;;;;;;4806949;29;20051;-81
2022/09/14 04:23:41;;;;;;;5.57;1.10;;;16.40;99.90;;;;;;4790194;29;20092;-82
2022/09/14 04:26:17;;;;;;;3.13;0.55;;;16.40;99.90;;;;;;4806937;29;20164;-83
2022/09/14 04:28:43;;;;;;;4.72;0.80;;;16.50;99.90;;;;;;4790835;29;20055;-82
2022/09/14 04:31:10;;;;;;;5.00;0.82;;;16.50;99.90;;;;;;4807497;29;20046;-82
2022/09/14 04:33:37;;;;;;;2.88;0.60;;;16.50;99.90;;;;;;4790647;29;20092;-82
2022/09/14 04:36:11;;;;;;;6.68;1.65;;;16.50;99.90;;;;;;4810119;29;20043;-81
2022/09/14 04:38:38;;;;;;;7.45;0.68;;;16.40;99.90;;;;;;4809949;29;20054;-82
2022/09/14 04:41:06;;;;;;;6.55;1.05;;;16.40;99.90;;;;;;4793738;29;20134;-82
2022/09/14 04:43:31;;;;;;;7.15;0.55;;;16.40;99.90;;;;;;4810491;29;20497;-82
2022/09/14 04:46:02;;;;;;;8.25;0.70;;;16.40;99.90;;;;;;4793677;29;20143;-82
2022/09/14 04:48:33;;;;;;;8.27;0.80;;;16.40;99.90;;;;;;4810170;29;20138;-81
2022/09/14 04:51:04;;;;;;;2.03;0.50;;;16.30;99.90;;;;;;4794211;29;20086;-82
2022/09/14 04:53:33;;;;;;;6.13;1.10;;;16.40;99.90;;;;;;4810178;29;20045;-81
2022/09/14 04:56:00;;;;;;;5.80;0.52;;;16.30;99.90;;;;;;4809974;29;20570;-83
2022/09/14 04:58:27;;;;;;;6.88;0.70;;;16.30;99.90;;;;;;4793762;29;20058;-82
2022/09/14 05:00:54;;;;;;;4.63;0.50;;;16.30;99.90;;;;;;4793481;29;20058;-82
2022/09/14 05:03:21;;;;;;;3.90;0.70;;;16.30;99.90;;;;;;4792503;29;20066;-82
2022/09/14 05:05:46;;;;;;;5.78;0.90;;;16.30;99.90;;;;;;4793290;29;20107;-82
2022/09/14 05:08:12;;;;;;;2.35;0.50;;;16.30;99.90;;;;;;4791919;29;20469;-82
2022/09/14 05:10:38;;;;;;;4.25;0.95;;;16.30;99.90;;;;;;4791586;29;20063;-82
2022/09/14 05:13:03;;;;;;;6.45;0.63;;;16.30;99.90;;;;;;4791693;29;20134;-81
2022/09/14 05:15:29;;;;;;;5.85;0.70;;;16.30;99.90;;;;;;4792852;29;20066;-82
2022/09/14 05:17:54;;;;;;;6.88;0.50;;;16.30;99.90;;;;;;4792957;29;20047;-82
2022/09/14 05:20:20;;;;;;;4.30;0.50;;;16.30;99.90;;;;;;4792743;29;20153;-82
2022/09/14 05:22:49;;;;;;;6.60;0.90;;;16.30;99.90;;;;;;4808592;29;20058;-82
2022/09/14 05:25:15;;;;;;;4.93;0.50;;;16.30;99.90;;;;;;4792437;29;20104;-82
2022/09/14 05:27:41;;;;;;;7.07;0.70;;;16.30;99.90;;;;;;4808791;29;20055;-81
2022/09/14 05:30:07;;;;;;;8.98;1.27;;;16.30;99.90;;;;;;4792212;29;20086;-82
2022/09/14 05:32:33;;;;;;;4.53;0.77;;;16.40;99.90;;;;;;4792501;29;20059;-81
2022/09/14 05:34:59;;;;;;;4.05;0.80;;;16.40;99.90;;;;;;4808765;29;20050;-81
2022/09/14 05:37:24;;;;;;;4.95;0.80;;;16.30;99.90;;;;;;4792166;29;20091;-82
2022/09/14 05:39:50;;;;;;;3.13;0.77;;;16.40;99.90;;;;;;4808629;29;20058;-82
2022/09/14 05:42:16;;;;;;;3.13;1.02;;;16.30;99.90;;;;;;4792494;29;20113;-82
2022/09/14 05:44:41;;;;;;;3.63;0.60;;;16.40;99.90;;;;;;4792453;29;20089;-82
2022/09/14 05:47:07;;;;;;;6.68;0.90;;;16.30;99.90;;;;;;4807097;29;20403;-82
2022/09/14 05:49:33;;;;;;;7.05;0.85;;;16.30;99.90;;;;;;4792069;29;20086;-82
2022/09/14 05:51:58;;;;;;;4.40;0.60;;;16.40;99.90;;;;;;4808097;29;20047;-82
2022/09/14 05:54:24;;;;;;;5.55;0.68;;;16.40;99.90;;;;;;4808429;29;20410;-82
2022/09/14 05:56:50;;;;;;;7.60;0.90;;;16.40;99.90;;;;;;4791791;29;20042;-82
2022/09/14 05:59:15;;;;;;;3.78;0.63;;;16.40;99.90;;;;;;4808298;29;20051;-82
2022/09/14 06:01:41;;;;;;;5.85;0.82;;;16.40;99.90;;;;;;4808185;29;20047;-82
2022/09/14 06:04:09;;;;;;;5.68;0.80;;;16.40;99.90;;;;;;4808115;29;20051;-82
2022/09/14 06:06:34;;;;;;;6.25;0.88;;;16.50;99.90;;;;;;4808030;29;20059;-82
2022/09/14 06:09:01;;;;;;;4.13;0.60;;;16.50;99.90;;;;;;4808065;29;20066;-82
2022/09/14 06:11:29;;;;;;;6.43;0.68;;;16.50;99.90;;;;;;4808066;29;20042;-82
2022/09/14 06:13:55;;;;;;;5.07;0.65;;;16.50;99.90;;;;;;4808010;29;20063;-82
2022/09/14 06:16:23;;;;;;;6.50;0.88;;;16.50;99.90;;;;;;4807975;29;20104;-82
2022/09/14 06:18:49;;;;;;;5.80;0.63;;;16.50;99.90;;;;;;4791496;29;20054;-82
2022/09/14 06:21:18;;;;;;;4.80;0.75;;;16.50;99.90;;;;;;4791447;29;20159;-81
2022/09/14 06:23:44;;;;;;;2.97;0.50;;;16.50;99.90;;;;;;4791427;29;20096;-82
2022/09/14 06:26:10;;;;;;;4.70;0.88;;;16.50;99.90;;;;;;4791522;29;20054;-82
2022/09/14 06:28:36;;;;;;;5.75;0.90;;;16.50;99.90;;;;;;4807665;29;20503;-81
2022/09/14 06:31:03;;;;;;;6.70;0.90;;;16.60;99.90;;;;;;4791315;29;20055;-82
2022/09/14 06:33:30;;;;;;;7.78;0.88;;;16.60;99.90;;;;;;4807538;29;20401;-81
2022/09/14 06:36:11;;;;;;;4.45;0.70;;;16.60;99.90;;;;;;4791224;29;20057;-81
2022/09/14 06:38:37;;;;;;;7.00;0.73;;;16.60;99.90;;;;;;4807712;29;20082;-82
2022/09/14 06:41:05;;;;;;;5.05;0.60;;;16.60;99.90;;;;;;4791550;29;20063;-81
2022/09/14 06:43:33;;;;;;;4.93;0.82;;;16.70;99.90;;;;;;4791562;29;20062;-82
2022/09/14 06:46:02;;;;;;;4.10;0.57;;;16.60;99.90;;;;;;4791269;29;20062;-81
2022/09/14 06:48:30;;;;;;;4.82;1.30;;;16.70;99.90;;;;;;4807478;29;20146;-82
2022/09/14 06:50:56;;;;;;;5.97;0.52;;;16.70;99.90;;;;;;4807422;29;20069;-84
2022/09/14 06:53:21;;;;;;;7.50;0.80;;;16.70;99.90;;;;;;4807448;29;20433;-82
2022/09/14 06:56:04;;;;;;;3.30;0.47;;;16.80;99.90;;;;;;4790987;29;20047;-82
2022/09/14 06:58:31;;;;;;;6.53;0.82;;;16.70;99.90;;;;;;4790794;29;20050;-82
2022/09/14 07:01:01;;;;;;;6.13;1.10;;;16.80;99.90;;;;;;4806847;29;20051;-82
2022/09/14 07:03:27;;;;;;;4.25;0.52;;;16.70;99.90;;;;;;4798907;29;20131;-81
2022/09/14 07:06:00;;;;;;;9.13;1.45;;;16.80;99.90;;;;;;4788749;30;20499;-82
2022/09/14 07:08:29;;;;;;;5.68;0.77;;;16.80;99.90;;;;;;4772562;30;20053;-81
2022/09/14 07:10:56;;;;;;;6.78;0.77;;;16.80;99.90;;;;;;4788968;30;20066;-81
2022/09/14 07:13:22;;;;;;;4.30;0.60;;;16.80;99.90;;;;;;4788812;30;20043;-81
2022/09/14 07:15:49;;;;;;;4.20;0.70;;;16.80;99.90;;;;;;4788827;30;20054;-81
2022/09/14 07:18:15;;;;;;;4.82;0.77;;;16.90;99.90;;;;;;4772303;30;20555;-81
2022/09/14 07:20:41;;;;;;;2.40;0.50;;;16.90;99.90;;;;;;4788807;30;20058;-81
2022/09/14 07:23:06;;;;;;;4.18;0.52;;;16.90;99.90;;;;;;4788529;30;20051;-81
2022/09/14 07:25:32;;;;;;;4.85;0.60;;;16.90;99.90;;;;;;4787481;30;20047;-80
2022/09/14 07:27:59;;;;;;;5.50;0.88;;;17.00;99.90;;;;;;4772162;30;20134;-81
2022/09/14 07:30:26;;;;;;;5.97;0.85;;;17.20;99.90;;;;;;4772258;30;20055;-80
2022/09/14 07:32:53;;;;;;;3.58;0.85;;;17.30;99.90;;;;;;4788507;30;20077;-80
2022/09/14 07:35:19;;;;;;;6.32;1.35;;;17.40;99.90;;;;;;4788397;30;20047;-81
2022/09/14 07:37:44;;;;;;;4.57;0.90;;;17.40;99.90;;;;;;4788534;30;20043;-81
2022/09/14 07:40:11;;;;;;;6.43;0.73;;;17.40;99.90;;;;;;4788172;30;20403;-81
2022/09/14 07:42:37;;;;;;;5.40;0.75;;;17.50;99.90;;;;;;4788410;29;20051;-81
2022/09/14 07:45:04;;;;;;;4.45;0.70;;;17.50;99.90;;;;;;4772114;30;20059;-81
2022/09/14 07:47:31;;;;;;;8.02;1.10;;;17.60;99.90;;;;;;4771848;30;20061;-80
2022/09/14 07:49:56;;;;;;;4.03;1.10;;;17.60;99.90;;;;;;4777634;29;20419;-81
2022/09/14 07:52:22;;;;;;;5.15;1.08;;;17.60;99.90;;;;;;4790106;29;20065;-80
2022/09/14 07:54:48;;;;;;;5.60;0.80;;;17.70;99.90;;;;;;4789845;29;20154;-80
2022/09/14 07:57:14;;;;;;;5.63;0.73;;;17.70;99.90;;;;;;4790223;29;20135;-80
2022/09/14 07:59:40;;;;;;;3.63;0.80;;;17.80;99.90;;;;;;4789884;29;20050;-80
2022/09/14 08:02:07;;;;;;;5.60;0.82;;;17.80;99.90;;;;;;4806159;29;20047;-80
2022/09/14 08:04:34;;;;;;;5.40;0.80;;;17.80;99.90;;;;;;4787486;29;20051;-80
2022/09/14 08:07:00;;;;;;;4.18;0.70;;;17.90;99.90;;;;;;4806079;29;20047;-80
2022/09/14 08:09:26;;;;;;;3.38;0.77;;;17.90;99.90;;;;;;4790833;29;20058;-80
2022/09/14 08:11:52;;;;;;;6.30;0.85;;;18.00;99.90;;;;;;4809762;29;20483;-80
2022/09/14 08:14:18;;;;;;;3.45;0.70;;;18.00;99.90;;;;;;4793092;29;20426;-80
2022/09/14 08:16:43;;;;;;;4.68;1.05;;;18.10;99.90;;;;;;4793283;29;20042;-80
2022/09/14 08:19:15;;;;;;;5.45;0.80;;;18.10;99.90;;;;;;4808967;29;20440;-80
2022/09/14 08:21:42;;;;;;;9.23;1.00;;;18.20;99.90;;;;;;4809367;29;20051;-80
2022/09/14 08:24:11;;;;;;;3.78;0.90;;;18.30;99.90;;;;;;4809624;29;20300;-80
2022/09/14 08:26:36;;;;;;;3.65;0.70;;;18.50;99.90;;;;;;4809329;29;20498;-80
2022/09/14 08:29:03;;;;;;;5.05;0.70;;;18.50;99.90;;;;;;4793138;29;20096;-81
2022/09/14 08:31:29;;;;;;;5.45;1.00;;;18.60;99.90;;;;;;4809279;29;20497;-80
2022/09/14 08:33:56;;;;;;;4.65;0.60;;;18.70;99.90;;;;;;4793159;29;20086;-80
2022/09/14 08:36:24;;;;;;;4.88;0.68;;;18.70;99.90;;;;;;4792959;29;20059;-80
2022/09/14 08:38:50;;;;;;;4.50;1.02;;;18.70;99.90;;;;;;4793038;29;20134;-80
2022/09/14 08:41:33;;;;;;;5.63;0.60;;;18.80;99.90;;;;;;4792927;29;20133;-81
2022/09/14 08:44:24;;;;;;;5.50;0.70;;;18.80;99.90;;;;;;4793150;29;20129;-80
2022/09/14 08:47:09;;;;;;;5.72;0.75;;;18.80;99.90;;;;;;4808896;29;20112;-80
2022/09/14 08:49:43;;;;;;;9.50;0.88;;;18.90;99.90;;;;;;4809078;29;20088;-81
2022/09/14 08:52:22;;;;;;;5.72;1.00;;;18.90;99.90;;;;;;4793013;29;20054;-80
2022/09/14 08:54:51;;;;;;;4.85;0.80;;;18.90;99.90;;;;;;4809031;29;20130;-80
2022/09/14 08:57:22;;;;;;;11.68;1.00;;;19.00;99.90;;;;;;4792835;29;20057;-80
2022/09/14 09:00:01;;;;;;;5.97;0.88;;;19.10;99.90;;;;;;4792859;29;20451;-80
2022/09/14 09:02:45;;;;;;;4.35;0.65;;;19.30;99.90;;;;;;4792652;29;20562;-80
2022/09/14 09:05:19;;;;;;;4.40;0.77;;;19.60;99.90;;;;;;4808957;29;20053;-82
2022/09/14 09:08:14;;;;;;;7.07;1.05;;;19.70;99.90;;;;;;4791283;29;20133;-81
2022/09/14 09:10:40;;;;;;;3.92;0.65;;;19.80;99.90;;;;;;4790646;29;20078;-81
2022/09/14 09:13:12;;;;;;;8.13;0.80;;;19.90;99.90;;;;;;4808570;29;20081;-82
2022/09/14 09:15:51;;;;;;;4.43;0.98;;;20.00;99.90;;;;;;4792352;29;20118;-82
2022/09/14 09:18:35;;;;;;;4.70;0.93;;;20.10;99.90;;;;;;4822591;29;20062;-83
2022/09/14 09:21:08;;;;;;;3.30;0.70;;;20.10;99.90;;;;;;4808598;29;20050;-80
2022/09/14 09:23:34;;;;;;;4.88;0.88;;;20.00;99.90;;;;;;4808773;29;20051;-82
2022/09/14 09:26:10;;;;;;;4.85;0.80;;;20.00;99.90;;;;;;4808765;29;20053;-81
2022/09/14 09:29:00;;;;;;;6.13;0.70;;;20.20;99.90;;;;;;4808450;29;20130;-82
2022/09/14 09:31:33;;;;;;;5.25;0.70;;;20.00;99.90;;;;;;4822365;29;20483;-81
2022/09/14 09:34:00;;;;;;;3.97;0.80;;;20.00;99.90;;;;;;4808314;29;20062;-82
2022/09/14 09:36:33;;;;;;;3.58;0.77;;;19.90;99.90;;;;;;4792005;29;20046;-84
2022/09/14 09:38:59;;;;;;;5.07;0.90;;;19.90;99.90;;;;;;4792144;29;20399;-80
2022/09/14 09:41:28;;;;;;;2.85;0.70;;;19.90;99.90;;;;;;4792000;29;20050;-81
2022/09/14 09:43:56;;;;;;;4.45;0.90;;;19.80;99.90;;;;;;4792110;29;20039;-80
2022/09/14 09:46:22;;;;;;;4.82;0.80;;;19.60;99.90;;;;;;4791991;29;20062;-80
2022/09/14 09:48:48;;;;;;;5.70;1.05;;;19.70;99.90;;;;;;4791797;29;20411;-81
2022/09/14 09:51:23;;;;;;;5.70;1.17;;;19.90;99.90;;;;;;4792023;29;20055;-81
2022/09/14 09:54:01;;;;;;;6.75;1.13;;;19.80;99.90;;;;;;4791918;29;20495;-82
2022/09/14 09:56:31;;;;;;;4.50;0.82;;;19.80;99.90;;;;;;4792693;29;20063;-81
2022/09/14 09:58:57;;;;;;;5.15;1.13;;;19.90;99.90;;;;;;4791946;29;20482;-80
2022/09/14 10:01:27;;;;;;;7.00;1.35;;;19.90;99.90;;;;;;4792214;29;20065;-86
2022/09/14 10:04:00;;;;;;;5.18;0.88;;;19.80;99.90;;;;;;4808034;29;20078;-81
2022/09/14 10:06:26;;;;;;;6.07;1.65;;;19.80;99.90;;;;;;4791733;29;20046;-81
2022/09/14 10:08:53;;;;;;;8.82;1.90;;;19.80;99.90;;;;;;4808091;29;20054;-81
2022/09/14 10:11:25;;;;;;;4.18;0.70;;;19.80;99.90;;;;;;4792006;29;20134;-83
2022/09/14 10:13:51;;;;;;;4.67;0.80;;;19.80;99.90;;;;;;4791820;29;20445;-81
2022/09/14 10:16:19;;;;;;;3.03;0.80;;;19.80;99.90;;;;;;4808047;29;20062;-83
2022/09/14 10:18:50;;;;;;;3.70;0.90;;;19.90;99.90;;;;;;4791519;29;20411;-81
2022/09/14 10:21:24;;;;;;;4.95;0.63;;;20.10;99.90;;;;;;4807922;29;20111;-82
2022/09/14 10:24:19;;;;;;;8.10;1.02;;;20.20;99.90;;;;;;4807662;29;20536;-83
2022/09/14 10:26:44;;;;;;;5.82;0.93;;;20.20;99.90;;;;;;4803102;29;20119;-84
2022/09/14 10:29:42;;;;;;;3.25;0.70;;;20.20;99.90;;;;;;4807511;29;20449;-83
2022/09/14 10:32:19;;;;;;;5.70;1.33;;;20.30;99.90;;;;;;4799383;29;20143;-85
2022/09/14 10:34:44;;;;;;;5.45;1.00;;;20.50;99.90;;;;;;4807627;29;20050;-83
2022/09/14 10:37:45;;;;;;;5.65;0.90;;;20.60;99.90;;;;;;4791038;29;20061;-83
2022/09/14 10:40:15;;;;;;;8.20;0.88;;;20.70;99.90;;;;;;4808245;29;20145;-86
2022/09/14 10:43:04;;;;;;;6.90;0.90;;;20.50;99.90;;;;;;4807633;29;20046;-83
2022/09/14 10:45:51;;;;;;;4.95;0.68;;;20.80;99.90;;;;;;4791044;29;20047;-90
2022/09/14 10:48:56;;;;;;;4.30;0.88;;;20.90;99.90;;;;;;4807498;29;20065;-92
2022/09/14 10:52:00;;;;;;;8.20;1.00;;;21.00;99.90;;;;;;4800322;29;20104;-89
2022/09/14 10:54:50;;;;;;;3.15;0.88;;;21.20;99.90;;;;;;4807526;29;20103;-83
2022/09/14 10:57:34;;;;;;;4.55;0.98;;;21.20;99.90;;;;;;4807304;29;20100;-84
2022/09/14 11:00:14;;;;;;;6.38;1.20;;;21.10;99.90;;;;;;4807188;29;20146;-81
2022/09/14 11:03:16;;;;;;;5.80;1.25;;;21.20;99.90;;;;;;4792068;29;20065;-82
2022/09/14 11:05:58;;;;;;;4.75;0.80;;;21.30;99.90;;;;;;4807333;29;20059;-85
2022/09/14 11:08:38;;;;;;;5.90;1.75;;;21.40;99.90;;;;;;4791075;29;20042;-88
2022/09/14 11:11:21;;;;;;;6.10;0.90;;;21.20;99.90;;;;;;4807481;29;20461;-83
2022/09/14 11:14:18;;;;;;;6.65;0.93;;;21.00;99.90;;;;;;4791076;29;20475;-96
2022/09/14 11:17:22;;;;;;;6.53;0.90;;;21.10;99.90;;;;;;4791420;29;20077;-90
2022/09/14 11:20:00;;;;;;;;;;;21.10;99.90;;;;;;4807178;29;20059;-90
2022/09/14 11:22:49;;;;;;;4.88;0.80;;;21.00;99.90;;;;;;4808033;29;19933;-91
2022/09/14 11:25:27;;;;;;;4.13;0.75;;;20.90;99.90;;;;;;4790831;29;20501;-88
2022/09/14 11:27:59;;;;;;;6.25;0.80;;;20.90;99.90;;;;;;4807088;29;20070;-89
2022/09/14 11:30:43;;;;;;;4.95;0.98;;;20.90;99.90;;;;;;4807141;29;20510;-91
2022/09/14 11:33:25;;;;;;;5.85;0.90;;;20.90;99.90;;;;;;4806681;29;20057;-86
2022/09/14 11:35:57;;;;;;;7.03;1.13;;;20.90;99.90;;;;;;4807041;29;20439;-85
2022/09/14 11:38:27;;;;;;;5.00;0.95;;;20.90;99.90;;;;;;4790349;29;20080;-86
2022/09/14 11:41:05;;;;;;;4.00;0.85;;;20.90;99.90;;;;;;4790528;29;20499;-83
2022/09/14 11:43:46;;;;;;;5.88;1.25;;;21.00;99.90;;;;;;4806763;29;20050;-83
2022/09/14 11:46:30;;;;;;;6.15;0.82;;;21.20;99.90;;;;;;4806152;29;20579;-82
2022/09/14 11:49:06;;;;;;;3.10;0.75;;;21.10;99.90;;;;;;4790739;29;20062;-82
2022/09/14 11:51:58;;;;;;;5.65;0.93;;;21.10;99.90;;;;;;4789885;29;20082;-83
2022/09/14 11:54:24;;;;;;;8.82;1.17;;;21.10;99.90;;;;;;4787833;29;20086;-85
2022/09/14 11:56:57;;;;;;;3.97;0.50;;;21.10;99.90;;;;;;4806338;29;20129;-83
2022/09/14 11:59:51;;;;;;;7.00;1.33;;;21.10;99.90;;;;;;4790314;29;20055;-85
2022/09/14 12:02:26;;;;;;;4.75;0.70;;;21.20;99.90;;;;;;4790085;29;20474;-84
2022/09/14 12:05:04;;;;;;;4.70;0.90;;;21.40;99.90;;;;;;4789667;29;20054;-81
2022/09/14 12:07:38;;;;;;;3.38;0.77;;;21.30;99.90;;;;;;4805628;29;20049;-83
2022/09/14 12:10:13;;;;;;;5.00;1.10;;;21.30;99.90;;;;;;4806390;29;20059;-83
2022/09/14 12:12:45;;;;;;;7.20;1.38;;;21.40;99.90;;;;;;4789956;29;20055;-84
2022/09/14 12:15:16;;;;;;;;;;;21.40;99.90;;;;;;4790546;29;20055;-82
2022/09/14 12:17:44;;;;;;;5.32;1.10;;;21.50;99.90;;;;;;4789225;29;19929;-82
2022/09/14 12:20:37;;;;;;;5.38;1.02;;;21.60;99.90;;;;;;4806070;29;20128;-82
2022/09/14 12:23:23;;;;;;;5.85;2.08;;;21.60;99.90;;;;;;4805975;29;20059;-83
2022/09/14 12:26:18;;;;;;;4.50;1.02;;;21.50;99.90;;;;;;4806461;29;20058;-84
2022/09/14 12:28:49;;;;;;;7.93;1.20;;;21.50;99.90;;;;;;4786740;29;20571;-82
2022/09/14 12:31:34;;;;;;;5.30;0.85;;;21.50;99.90;;;;;;4789810;29;20407;-83
2022/09/14 12:34:13;;;;;;;5.35;0.70;;;21.30;99.90;;;;;;4806257;29;20050;-82
2022/09/14 12:36:39;;;;;;;7.32;1.58;;;21.30;99.90;;;;;;4790017;29;20051;-83
2022/09/14 12:39:26;;;;;;;5.82;0.80;;;21.20;99.90;;;;;;4789814;29;20093;-85
2022/09/14 12:41:51;;;;;;;10.57;2.75;;;21.20;99.90;;;;;;4806044;29;20153;-83
2022/09/14 12:44:37;;;;;;;7.18;0.60;;;21.20;99.90;;;;;;4805752;29;20047;-81
2022/09/14 12:47:34;;;;;;;5.63;0.88;;;21.30;99.90;;;;;;4782111;30;20138;-82
2022/09/14 12:50:08;;;;;;;6.13;0.90;;;21.40;99.90;;;;;;4779361;30;20059;-83
2022/09/14 12:52:42;;;;;;;9.45;0.77;;;21.30;99.90;;;;;;4783975;30;20520;-85
2022/09/14 12:55:33;;;;;;;4.10;0.63;;;21.20;99.90;;;;;;4783030;29;20520;-82
2022/09/14 12:58:27;;;;;;;4.75;0.60;;;21.40;99.90;;;;;;4788394;29;20047;-82
2022/09/14 13:01:27;;;;;;;3.20;0.70;;;21.50;99.90;;;;;;4913668;24;20084;-80
2022/09/14 13:03:54;;;;;;;5.50;0.85;;;21.50;99.90;;;;;;4789808;30;20419;-81
2022/09/14 13:06:22;;;;;;;5.22;0.63;;;21.50;99.90;;;;;;4790055;30;20108;-82
2022/09/14 13:08:53;;;;;;;2.92;0.77;;;21.60;99.90;;;;;;4791187;29;20051;-82
2022/09/14 13:11:22;;;;;;;2.55;0.60;;;21.40;99.90;;;;;;4790493;29;20051;-83
2022/09/14 13:13:48;;;;;;;3.60;0.90;;;21.30;99.90;;;;;;4789692;30;20071;-84